Terminal Aerodrome Forecast
Issued by NWS

Home | Current Version | Previous Version | Graphics & Text | Print | Product List | Glossary On
Versions: 1 2 3 4 5 6 7 8 9 10 11 12 13 14
802
FTUS42 KMHX 250532
TAFOAJ
TAF
KOAJ 250532Z 2506/2606 20005KT P6SM BKN250
     FM251800 20009KT P6SM SCT045
     FM252200 18007KT P6SM SCT250
     FM260500 VRB03KT P6SM SKC
      AMD LTD TO CLD VIS AND WIND=

USA.gov is the U.S. government's official web portal to all federal, state and local government web resources and services.